createdAt,value
2018-09-10T00:02:07.761Z,99.90
2018-09-10T00:04:35.575Z,99.90
2018-09-10T00:07:03.424Z,99.90
2018-09-10T00:09:31.262Z,99.90
2018-09-10T00:12:00.099Z,99.90
2018-09-10T00:14:27.911Z,99.90
2018-09-10T00:16:55.720Z,99.90
2018-09-10T00:19:23.476Z,99.90
2018-09-10T00:22:09.690Z,99.90
2018-09-10T00:25:25.348Z,99.90
2018-09-10T00:27:53.417Z,99.90
2018-09-10T00:30:21.536Z,99.90
2018-09-10T00:32:49.525Z,99.90
2018-09-10T00:35:17.608Z,99.90
2018-09-10T00:37:45.565Z,99.90
2018-09-10T00:40:13.645Z,99.90
2018-09-10T00:42:41.659Z,99.90
2018-09-10T00:45:09.744Z,99.90
2018-09-10T00:47:37.715Z,99.90
2018-09-10T00:50:05.865Z,99.90
2018-09-10T00:52:33.721Z,99.90
2018-09-10T00:55:01.646Z,99.90
2018-09-10T00:57:29.564Z,99.90
2018-09-10T00:59:57.566Z,99.90
2018-09-10T01:02:25.444Z,99.90
2018-09-10T01:04:53.408Z,99.90
2018-09-10T01:07:21.302Z,99.90
2018-09-10T01:09:49.226Z,99.90
2018-09-10T01:12:17.080Z,99.90
2018-09-10T01:14:45.075Z,99.90
2018-09-10T01:17:13.014Z,99.90
2018-09-10T01:19:40.952Z,99.90
2018-09-10T01:22:08.840Z,99.90
2018-09-10T01:24:36.755Z,99.90
2018-09-10T01:27:04.711Z,99.90
2018-09-10T01:29:32.510Z,99.90
2018-09-10T01:32:00.379Z,99.90
2018-09-10T01:34:33.704Z,99.90
2018-09-10T01:37:01.511Z,99.90
2018-09-10T01:39:29.365Z,99.90
2018-09-10T01:41:57.190Z,99.90
2018-09-10T01:44:32.698Z,99.90
2018-09-10T01:47:01.098Z,99.90
2018-09-10T01:49:29.828Z,99.90
2018-09-10T01:51:58.568Z,99.90
2018-09-10T01:54:27.252Z,99.90
2018-09-10T01:56:55.662Z,99.90
2018-09-10T01:59:24.296Z,99.90
2018-09-10T02:01:52.979Z,99.90
2018-09-10T02:04:21.644Z,99.90
2018-09-10T02:06:50.198Z,99.90
2018-09-10T02:09:18.642Z,99.90
2018-09-10T02:11:47.347Z,99.90
2018-09-10T02:14:16.965Z,99.90
2018-09-10T02:16:45.548Z,99.90
2018-09-10T02:19:14.120Z,99.90
2018-09-10T02:21:42.600Z,99.90
2018-09-10T02:24:11.051Z,99.90
2018-09-10T02:26:39.758Z,99.90
2018-09-10T02:29:08.289Z,99.90
2018-09-10T02:31:36.886Z,99.90
2018-09-10T02:34:05.383Z,99.90
2018-09-10T02:36:34.983Z,99.90
2018-09-10T02:39:04.512Z,99.90
2018-09-10T02:41:37.354Z,99.90
2018-09-10T02:44:06.089Z,99.90
2018-09-10T02:46:34.612Z,99.90
2018-09-10T02:49:03.200Z,99.90
2018-09-10T02:51:31.828Z,99.90
2018-09-10T02:54:00.622Z,99.90
2018-09-10T02:56:29.136Z,99.90
2018-09-10T02:58:57.689Z,99.90
2018-09-10T03:01:26.319Z,99.90
2018-09-10T03:03:54.887Z,99.90
2018-09-10T03:06:23.336Z,99.90
2018-09-10T03:08:51.798Z,99.90
2018-09-10T03:11:20.331Z,99.90
2018-09-10T03:13:48.978Z,99.90
2018-09-10T03:16:17.517Z,99.90
2018-09-10T03:18:46.002Z,99.90
2018-09-10T03:21:14.493Z,99.90
2018-09-10T03:23:43.091Z,99.90
2018-09-10T03:26:11.423Z,99.90
2018-09-10T03:28:39.817Z,99.90
2018-09-10T03:31:08.448Z,99.90
2018-09-10T03:33:36.940Z,99.90
2018-09-10T03:36:05.261Z,99.90
2018-09-10T03:38:33.529Z,99.90
2018-09-10T03:41:01.948Z,99.90
2018-09-10T03:43:30.332Z,99.90
2018-09-10T03:45:58.756Z,99.90
2018-09-10T03:48:27.057Z,99.90
2018-09-10T03:50:55.407Z,99.90
2018-09-10T03:53:23.791Z,99.90
2018-09-10T03:55:52.146Z,99.90
2018-09-10T03:58:20.597Z,99.90
2018-09-10T04:00:49.075Z,99.90
2018-09-10T04:03:17.637Z,99.90
2018-09-10T04:05:46.122Z,99.90
2018-09-10T04:08:14.620Z,99.90
2018-09-10T04:10:42.917Z,99.90
2018-09-10T04:13:11.543Z,99.90
2018-09-10T04:15:39.998Z,99.90
2018-09-10T04:18:08.557Z,99.90
2018-09-10T04:20:37.162Z,99.90
2018-09-10T04:23:05.954Z,99.90
2018-09-10T04:25:34.495Z,99.90
2018-09-10T04:28:02.868Z,99.90
2018-09-10T04:30:31.329Z,99.90
2018-09-10T04:32:59.818Z,99.90
2018-09-10T04:35:28.279Z,99.90
2018-09-10T04:37:56.620Z,99.90
2018-09-10T04:40:24.970Z,99.90
2018-09-10T04:42:53.502Z,99.90
2018-09-10T04:45:23.178Z,99.90
2018-09-10T04:47:51.574Z,99.90
2018-09-10T04:50:20.015Z,99.90
2018-09-10T04:52:48.309Z,99.90
2018-09-10T04:55:17.070Z,99.90
2018-09-10T04:57:45.751Z,99.90
2018-09-10T05:00:14.251Z,99.90
2018-09-10T05:02:43.622Z,99.90
2018-09-10T05:05:12.045Z,99.90
2018-09-10T05:07:40.563Z,99.90
2018-09-10T05:10:09.115Z,99.90
2018-09-10T05:12:37.630Z,99.90
2018-09-10T05:15:06.431Z,99.90
2018-09-10T05:17:34.896Z,99.90
2018-09-10T05:20:03.396Z,99.90
2018-09-10T05:22:31.966Z,99.90
2018-09-10T05:25:00.332Z,99.90
2018-09-10T05:27:28.789Z,99.90
2018-09-10T05:29:57.265Z,99.90
2018-09-10T05:32:25.810Z,99.90
2018-09-10T05:34:54.310Z,99.90
2018-09-10T05:37:22.769Z,99.90
2018-09-10T05:39:51.181Z,99.90
2018-09-10T05:42:19.815Z,99.90
2018-09-10T05:44:48.545Z,99.90
2018-09-10T05:47:17.107Z,99.90
2018-09-10T05:49:45.631Z,99.90
2018-09-10T05:52:14.169Z,99.90
2018-09-10T05:54:42.836Z,99.90
2018-09-10T05:57:11.369Z,99.90
2018-09-10T05:59:40.130Z,99.90
2018-09-10T06:02:08.921Z,99.90
2018-09-10T06:04:37.564Z,99.90
2018-09-10T06:07:06.214Z,99.90
2018-09-10T06:09:34.753Z,99.90
2018-09-10T06:12:03.469Z,99.90
2018-09-10T06:14:32.030Z,99.90
2018-09-10T06:17:00.634Z,99.90
2018-09-10T06:19:29.319Z,99.90
2018-09-10T06:21:57.912Z,99.90
2018-09-10T06:24:26.400Z,99.90
2018-09-10T06:26:54.981Z,99.90
2018-09-10T06:29:23.712Z,99.90
2018-09-10T06:31:52.164Z,99.90
2018-09-10T06:34:20.813Z,99.90
2018-09-10T06:36:49.539Z,99.90
2018-09-10T06:39:18.315Z,99.90
2018-09-10T06:41:47.021Z,99.90
2018-09-10T06:44:15.726Z,99.90
2018-09-10T06:46:44.479Z,99.90
2018-09-10T06:49:13.133Z,99.90
2018-09-10T06:51:41.733Z,99.90
2018-09-10T06:54:10.280Z,99.90
2018-09-10T06:56:39.058Z,99.90
2018-09-10T06:59:07.842Z,99.90
2018-09-10T07:01:36.519Z,99.90
2018-09-10T07:04:05.315Z,99.90
2018-09-10T07:06:34.089Z,99.90
2018-09-10T07:09:03.060Z,99.90
2018-09-10T07:11:31.743Z,99.90
2018-09-10T07:14:00.575Z,99.90
2018-09-10T07:18:57.921Z,99.90
2018-09-10T07:21:26.630Z,99.90
2018-09-10T07:23:55.335Z,99.90
2018-09-10T07:26:24.205Z,99.90
2018-09-10T07:28:52.915Z,99.90
2018-09-10T07:31:21.564Z,99.90
2018-09-10T07:33:50.236Z,99.90
2018-09-10T07:36:18.967Z,99.90
2018-09-10T07:38:47.538Z,99.90
2018-09-10T07:41:17.102Z,99.90
2018-09-10T07:43:45.706Z,99.90
2018-09-10T07:46:14.114Z,99.90
2018-09-10T07:48:42.643Z,99.90
2018-09-10T07:51:11.308Z,99.90
2018-09-10T07:53:39.752Z,99.90
2018-09-10T07:56:08.066Z,99.90
2018-09-10T07:58:36.568Z,99.90
2018-09-10T08:01:05.197Z,99.90
2018-09-10T08:03:33.705Z,99.90
2018-09-10T08:06:02.227Z,99.90
2018-09-10T08:08:30.769Z,99.90
2018-09-10T08:10:59.180Z,99.90
2018-09-10T08:13:27.565Z,99.90
2018-09-10T08:15:56.077Z,99.90
2018-09-10T08:18:24.533Z,99.90
2018-09-10T08:20:52.997Z,99.90
2018-09-10T08:23:21.440Z,99.90
2018-09-10T08:25:49.998Z,99.90
2018-09-10T08:28:18.593Z,99.90
2018-09-10T08:30:47.240Z,99.90
2018-09-10T08:33:15.806Z,99.90
2018-09-10T08:35:44.203Z,99.90
2018-09-10T08:38:12.668Z,99.90
2018-09-10T08:40:41.314Z,99.90
2018-09-10T08:43:09.760Z,99.90
2018-09-10T08:45:38.151Z,99.90
2018-09-10T08:48:06.637Z,99.90
2018-09-10T08:50:35.037Z,99.90
2018-09-10T08:53:04.541Z,99.90
2018-09-10T08:55:33.101Z,99.90
2018-09-10T08:58:01.788Z,99.90
2018-09-10T09:00:30.331Z,99.90
2018-09-10T09:02:58.719Z,99.90
2018-09-10T09:05:27.143Z,99.90
2018-09-10T09:07:55.528Z,99.90
2018-09-10T09:10:23.969Z,99.90
2018-09-10T09:12:52.388Z,99.90
2018-09-10T09:15:20.927Z,99.90
2018-09-10T09:17:49.337Z,99.90
2018-09-10T09:20:17.853Z,99.90
2018-09-10T09:22:46.298Z,99.90
2018-09-10T09:25:14.802Z,99.90
2018-09-10T09:27:43.523Z,99.90
2018-09-10T09:30:12.045Z,99.90
2018-09-10T09:32:40.758Z,99.90
2018-09-10T09:35:09.584Z,99.90
2018-09-10T09:37:44.590Z,99.90
2018-09-10T09:40:18.863Z,99.90
2018-09-10T09:42:52.771Z,99.90
2018-09-10T09:45:26.945Z,99.90
2018-09-10T09:47:55.490Z,99.90
2018-09-10T09:50:23.836Z,99.90
2018-09-10T09:52:52.247Z,99.90
2018-09-10T09:55:21.225Z,99.90
2018-09-10T09:57:49.533Z,99.90
2018-09-10T10:00:23.914Z,99.90
2018-09-10T10:02:56.146Z,99.90
2018-09-10T10:05:24.614Z,99.90
2018-09-10T10:07:54.289Z,99.90
2018-09-10T10:10:23.682Z,99.90
2018-09-10T10:12:52.300Z,99.90
2018-09-10T10:15:21.926Z,99.90
2018-09-10T10:17:50.347Z,99.90
2018-09-10T10:20:18.812Z,99.90
2018-09-10T10:22:47.300Z,99.90
2018-09-10T10:25:15.828Z,99.90
2018-09-10T10:27:44.400Z,99.90
2018-09-10T10:30:15.195Z,99.90
2018-09-10T10:32:45.647Z,99.90
2018-09-10T10:35:14.650Z,99.90
2018-09-10T10:37:43.528Z,99.90
2018-09-10T10:40:12.245Z,99.90
2018-09-10T10:42:43.035Z,99.90
2018-09-10T10:45:12.471Z,99.90
2018-09-10T10:47:43.003Z,99.90
2018-09-10T10:50:14.769Z,99.90
2018-09-10T10:53:02.137Z,99.90
2018-09-10T10:58:46.102Z,99.90
2018-09-10T11:01:54.927Z,99.90
2018-09-10T11:07:43.729Z,99.90
2018-09-10T11:10:12.216Z,99.90
2018-09-10T11:13:43.577Z,99.90
2018-09-10T11:16:11.995Z,99.90
2018-09-10T11:18:40.755Z,99.90
2018-09-10T11:21:09.261Z,99.90
2018-09-10T11:23:37.828Z,99.90
2018-09-10T11:26:06.405Z,99.90
2018-09-10T11:28:34.953Z,99.90
2018-09-10T11:31:03.351Z,99.90
2018-09-10T11:33:31.589Z,99.90
2018-09-10T11:35:59.887Z,99.90
2018-09-10T11:38:28.140Z,99.90
2018-09-10T11:40:56.384Z,99.90
2018-09-10T11:43:24.807Z,99.90
2018-09-10T11:45:53.143Z,99.90
2018-09-10T11:48:23.370Z,99.90
2018-09-10T11:50:54.230Z,99.90
2018-09-10T11:53:23.259Z,99.90
2018-09-10T11:55:53.849Z,99.90
2018-09-10T11:58:22.366Z,99.90
2018-09-10T12:04:04.531Z,99.90
2018-09-10T12:06:33.069Z,99.90
2018-09-10T12:09:01.532Z,99.90
2018-09-10T12:11:29.946Z,99.90
2018-09-10T12:13:58.328Z,98.60
2018-09-10T12:16:26.644Z,99.90
2018-09-10T12:18:55.109Z,99.90
2018-09-10T12:21:23.508Z,99.00
2018-09-10T12:23:51.896Z,96.80
2018-09-10T12:26:20.360Z,98.00
2018-09-10T12:28:48.881Z,98.80
2018-09-10T12:31:17.498Z,99.60
2018-09-10T12:33:46.031Z,99.90
2018-09-10T12:36:14.384Z,99.40
2018-09-10T12:38:42.779Z,99.90
2018-09-10T12:41:11.267Z,98.90
2018-09-10T12:43:40.580Z,98.50
2018-09-10T12:46:09.148Z,96.40
2018-09-10T12:48:37.416Z,94.20
2018-09-10T12:51:05.865Z,95.00
2018-09-10T12:53:34.163Z,94.90
2018-09-10T12:56:02.886Z,96.30
2018-09-10T12:58:31.160Z,97.10
2018-09-10T13:01:01.456Z,97.70
2018-09-10T13:03:30.063Z,98.70
2018-09-10T13:05:58.719Z,99.90
2018-09-10T13:08:27.122Z,99.90
2018-09-10T13:10:55.777Z,99.90
2018-09-10T13:13:24.274Z,99.90
2018-09-10T13:15:53.504Z,99.90
2018-09-10T13:18:21.848Z,99.90
2018-09-10T13:20:50.365Z,99.00
2018-09-10T13:23:18.679Z,99.30
2018-09-10T13:25:47.137Z,98.20
2018-09-10T13:28:15.851Z,99.40
2018-09-10T13:30:44.167Z,99.90
2018-09-10T13:33:12.483Z,99.90
2018-09-10T13:35:40.644Z,99.90
2018-09-10T13:38:09.981Z,99.90
2018-09-10T13:40:38.188Z,99.90
2018-09-10T13:43:06.563Z,99.80
2018-09-10T13:45:34.992Z,99.90
2018-09-10T13:48:03.354Z,99.90
2018-09-10T13:50:31.532Z,99.90
2018-09-10T13:52:59.900Z,98.10
2018-09-10T13:55:28.307Z,99.00
2018-09-10T13:57:56.827Z,98.30
2018-09-10T14:00:25.232Z,97.90
2018-09-10T14:02:53.446Z,99.60
2018-09-10T14:05:21.672Z,99.90
2018-09-10T14:07:49.839Z,99.80
2018-09-10T14:10:18.113Z,99.50
2018-09-10T14:12:46.329Z,99.90
2018-09-10T14:15:14.690Z,99.90
2018-09-10T14:17:42.825Z,99.90
2018-09-10T14:20:11.139Z,99.90
2018-09-10T14:22:39.261Z,99.90
2018-09-10T14:25:07.498Z,99.90
2018-09-10T14:27:35.736Z,99.90
2018-09-10T14:30:04.219Z,99.90
2018-09-10T14:32:32.547Z,99.90
2018-09-10T14:35:00.861Z,99.90
2018-09-10T14:37:29.186Z,99.90
2018-09-10T14:39:57.583Z,99.90
2018-09-10T14:42:26.959Z,99.90
2018-09-10T14:44:55.527Z,99.90
2018-09-10T14:47:23.861Z,99.90
2018-09-10T14:49:52.288Z,99.90
2018-09-10T14:52:20.693Z,99.90
2018-09-10T14:54:49.100Z,99.90
2018-09-10T14:57:17.470Z,99.90
2018-09-10T14:59:45.802Z,99.90
2018-09-10T15:02:14.266Z,99.90
2018-09-10T15:04:42.637Z,99.90
2018-09-10T15:07:11.994Z,99.90
2018-09-10T15:09:40.337Z,99.90
2018-09-10T15:12:08.861Z,99.90
2018-09-10T15:14:37.318Z,99.90
2018-09-10T15:17:05.680Z,99.90
2018-09-10T15:19:33.700Z,99.90
2018-09-10T15:22:02.500Z,99.90
2018-09-10T15:24:31.609Z,99.90
2018-09-10T15:26:59.465Z,99.90
2018-09-10T15:29:27.337Z,99.90
2018-09-10T15:31:55.179Z,99.90
2018-09-10T15:34:23.038Z,99.90
2018-09-10T15:36:50.864Z,99.90
2018-09-10T15:39:18.725Z,99.90
2018-09-10T15:41:46.525Z,99.90
2018-09-10T15:44:15.342Z,99.90
2018-09-10T15:46:43.161Z,99.90
2018-09-10T15:49:11.328Z,99.90
2018-09-10T15:51:39.212Z,99.90
2018-09-10T15:54:07.139Z,99.90
2018-09-10T15:56:35.177Z,99.90
2018-09-10T15:59:03.092Z,99.90
2018-09-10T16:01:30.962Z,99.90
2018-09-10T16:03:58.845Z,99.90
2018-09-10T16:06:26.677Z,99.90
2018-09-10T16:08:54.491Z,99.90
2018-09-10T16:11:22.355Z,99.90
2018-09-10T16:13:50.203Z,99.90
2018-09-10T16:16:18.114Z,99.90
2018-09-10T16:18:46.009Z,99.90
2018-09-10T16:21:13.832Z,99.90
2018-09-10T16:23:41.670Z,99.90
2018-09-10T16:26:09.543Z,99.90
2018-09-10T16:28:37.398Z,99.90
2018-09-10T16:31:05.252Z,99.90
2018-09-10T16:33:33.192Z,99.90
2018-09-10T16:36:01.069Z,99.90
2018-09-10T16:38:28.937Z,99.90
2018-09-10T16:40:56.790Z,99.90
2018-09-10T16:43:24.605Z,99.90
2018-09-10T16:45:52.450Z,99.90
2018-09-10T16:48:20.248Z,99.90
2018-09-10T16:50:49.081Z,99.90
2018-09-10T16:53:17.876Z,99.90
2018-09-10T16:55:45.679Z,99.90
2018-09-10T16:58:13.504Z,99.90
2018-09-10T17:06:07.285Z,99.90
2018-09-10T17:08:35.082Z,99.90
2018-09-10T17:11:02.933Z,99.90
2018-09-10T17:13:30.764Z,99.90
2018-09-10T17:15:58.576Z,99.90
2018-09-10T17:18:28.439Z,99.90
2018-09-10T17:20:56.350Z,99.90
2018-09-10T17:23:25.165Z,99.90
2018-09-10T17:25:54.190Z,99.90
2018-09-10T17:31:29.661Z,99.90
2018-09-10T17:37:05.628Z,99.90
2018-09-10T17:39:34.579Z,99.90
2018-09-10T17:42:13.138Z,99.90
2018-09-10T17:44:41.015Z,99.90
2018-09-10T17:47:09.983Z,99.90
2018-09-10T17:49:37.750Z,99.90
2018-09-10T17:52:05.805Z,99.90
2018-09-10T17:54:33.892Z,99.90
2018-09-10T17:57:01.849Z,99.90
2018-09-10T17:59:29.727Z,99.90
2018-09-10T18:01:58.678Z,99.90
2018-09-10T18:04:26.513Z,99.90
2018-09-10T18:06:54.460Z,99.90
2018-09-10T18:09:22.316Z,99.90
2018-09-10T18:11:50.185Z,99.90
2018-09-10T18:14:18.014Z,99.90
2018-09-10T18:16:45.851Z,99.90
2018-09-10T18:19:13.796Z,99.90
2018-09-10T18:21:41.683Z,99.90
2018-09-10T18:24:10.627Z,99.90
2018-09-10T18:26:38.498Z,99.90
2018-09-10T18:29:06.354Z,99.90
2018-09-10T18:31:34.244Z,99.90
2018-09-10T18:34:02.170Z,99.90
2018-09-10T18:36:30.025Z,99.90
2018-09-10T18:38:57.933Z,99.90
2018-09-10T18:41:25.813Z,99.90
2018-09-10T18:43:53.667Z,99.90
2018-09-10T18:46:21.550Z,99.90
2018-09-10T18:48:51.498Z,99.90
2018-09-10T18:51:19.409Z,99.90
2018-09-10T18:53:48.109Z,99.90
2018-09-10T18:56:40.388Z,99.90
2018-09-10T18:59:52.514Z,99.90
2018-09-10T19:02:20.453Z,99.90
2018-09-10T19:04:49.336Z,99.90
2018-09-10T19:07:17.187Z,99.90
2018-09-10T19:09:46.104Z,99.90
2018-09-10T19:12:13.922Z,99.90
2018-09-10T19:14:41.833Z,99.90
2018-09-10T19:17:09.736Z,99.90
2018-09-10T19:19:37.579Z,99.90
2018-09-10T19:22:05.416Z,99.90
2018-09-10T19:24:33.290Z,99.90
2018-09-10T19:27:01.162Z,99.90
2018-09-10T19:29:30.047Z,99.90
2018-09-10T19:31:57.906Z,99.90
2018-09-10T19:34:25.747Z,99.90
2018-09-10T19:36:53.640Z,99.90
2018-09-10T19:39:21.574Z,99.90
2018-09-10T19:41:49.558Z,99.90
2018-09-10T19:44:17.424Z,99.90
2018-09-10T19:46:45.293Z,99.90
2018-09-10T19:49:13.123Z,99.90
2018-09-10T19:51:41.994Z,99.90
2018-09-10T19:54:09.847Z,99.90
2018-09-10T19:56:37.672Z,99.90
2018-09-10T19:59:05.476Z,99.90
2018-09-10T20:01:33.308Z,99.90
2018-09-10T20:04:01.270Z,99.90
2018-09-10T20:06:29.097Z,99.90
2018-09-10T20:08:56.931Z,99.90
2018-09-10T20:11:24.798Z,99.90
2018-09-10T20:13:52.594Z,99.90
2018-09-10T20:16:20.441Z,99.90
2018-09-10T20:18:48.340Z,99.90
2018-09-10T20:21:16.196Z,99.90
2018-09-10T20:23:44.104Z,99.90
2018-09-10T20:26:25.448Z,99.90
2018-09-10T20:28:54.030Z,99.90
2018-09-10T20:31:24.836Z,99.90
2018-09-10T20:33:59.735Z,99.90
2018-09-10T20:36:28.010Z,99.90
2018-09-10T20:38:56.372Z,99.90
2018-09-10T20:41:24.712Z,99.90
2018-09-10T20:43:54.083Z,99.90
2018-09-10T20:46:22.427Z,99.90
2018-09-10T20:48:50.820Z,99.90
2018-09-10T20:51:19.190Z,99.90
2018-09-10T20:53:47.893Z,99.90
2018-09-10T20:56:16.269Z,99.90
2018-09-10T20:58:44.585Z,99.90
2018-09-10T21:01:12.973Z,99.90
2018-09-10T21:03:41.358Z,99.90
2018-09-10T21:06:09.741Z,99.90
2018-09-10T21:08:38.135Z,99.90
2018-09-10T21:11:06.525Z,99.90
2018-09-10T21:13:34.831Z,99.90
2018-09-10T21:16:03.166Z,99.90
2018-09-10T21:18:31.552Z,99.90
2018-09-10T21:20:59.920Z,99.90
2018-09-10T21:23:28.309Z,99.90
2018-09-10T21:25:56.628Z,99.90
2018-09-10T21:28:24.970Z,99.90
2018-09-10T21:30:53.351Z,99.90
2018-09-10T21:33:21.681Z,99.90
2018-09-10T21:35:50.009Z,99.90
2018-09-10T21:38:18.289Z,99.90
2018-09-10T21:40:46.654Z,99.90
2018-09-10T21:43:14.975Z,99.90
2018-09-10T21:45:43.325Z,99.90
2018-09-10T21:48:11.684Z,99.90
2018-09-10T21:50:39.980Z,99.90
2018-09-10T21:53:08.260Z,99.90
2018-09-10T21:55:37.573Z,99.90
2018-09-10T21:58:05.873Z,99.90
2018-09-10T22:00:34.204Z,99.90
2018-09-10T22:03:02.500Z,99.90
2018-09-10T22:05:30.781Z,99.90
2018-09-10T22:07:59.089Z,99.90
2018-09-10T22:10:27.429Z,99.90
2018-09-10T22:12:55.766Z,99.90
2018-09-10T22:15:24.062Z,99.90
2018-09-10T22:17:52.377Z,99.90
2018-09-10T22:20:20.729Z,99.90
2018-09-10T22:22:49.000Z,99.90
2018-09-10T22:25:17.310Z,99.90
2018-09-10T22:27:45.642Z,99.90
2018-09-10T22:30:13.980Z,99.90
2018-09-10T22:32:42.273Z,99.90
2018-09-10T22:35:10.622Z,99.90
2018-09-10T22:37:38.950Z,99.90
2018-09-10T22:40:07.323Z,99.90
2018-09-10T22:42:35.673Z,99.90
2018-09-10T22:45:04.623Z,99.90
2018-09-10T22:47:32.920Z,99.90
2018-09-10T22:50:01.244Z,99.90
2018-09-10T22:52:29.541Z,99.90
2018-09-10T22:54:57.879Z,99.90
2018-09-10T22:57:26.159Z,99.90
2018-09-10T22:59:54.462Z,99.90
2018-09-10T23:02:22.739Z,99.90
2018-09-10T23:04:51.023Z,99.90
2018-09-10T23:07:19.391Z,99.90
2018-09-10T23:09:47.728Z,99.90
2018-09-10T23:12:16.296Z,99.90
2018-09-10T23:14:44.636Z,99.90
2018-09-10T23:17:12.929Z,99.90
2018-09-10T23:19:41.265Z,99.90
2018-09-10T23:22:09.562Z,99.90
2018-09-10T23:24:37.881Z,99.90
2018-09-10T23:27:05.936Z,99.90
2018-09-10T23:29:34.314Z,99.90
2018-09-10T23:32:02.666Z,99.90
2018-09-10T23:34:30.980Z,99.90
2018-09-10T23:36:59.355Z,99.90
2018-09-10T23:39:27.664Z,99.90
2018-09-10T23:41:55.952Z,99.90
2018-09-10T23:44:24.250Z,99.90
2018-09-10T23:46:52.603Z,99.90
2018-09-10T23:49:20.977Z,99.90
2018-09-10T23:51:49.635Z,99.90
2018-09-10T23:54:18.106Z,99.90
2018-09-10T23:56:46.424Z,99.90
2018-09-10T23:59:14.805Z,99.90
